createdAt,value
2022-08-02T00:01:23.950Z,4.10
2022-08-02T00:03:52.343Z,4.10
2022-08-02T00:06:21.194Z,4.23
2022-08-02T00:08:50.013Z,4.10
2022-08-02T00:11:19.139Z,4.40
2022-08-02T00:13:48.735Z,4.07
2022-08-02T00:16:17.283Z,3.80
2022-08-02T00:18:47.108Z,4.17
2022-08-02T00:21:16.239Z,4.30
2022-08-02T00:24:27.728Z,4.17
2022-08-02T00:26:33.450Z,4.20
2022-08-02T00:29:01.929Z,4.60
2022-08-02T00:31:30.377Z,4.20
2022-08-02T00:34:28.346Z,4.57
2022-08-02T00:36:48.572Z,4.53
2022-08-02T00:39:34.143Z,4.70
2022-08-02T00:42:04.596Z,4.57
2022-08-02T00:44:33.107Z,4.63
2022-08-02T00:47:01.704Z,4.20
2022-08-02T00:49:32.753Z,4.50
2022-08-02T00:52:01.715Z,4.73
2022-08-02T00:54:32.966Z,4.87
2022-08-02T00:57:02.164Z,4.83
2022-08-02T00:59:30.662Z,4.10
2022-08-02T01:01:59.141Z,4.50
2022-08-02T01:04:31.042Z,5.50
2022-08-02T01:07:13.571Z,4.63
2022-08-02T01:09:43.038Z,4.20
2022-08-02T01:12:12.406Z,4.67
2022-08-02T01:14:42.572Z,5.00
2022-08-02T01:17:12.656Z,5.10
2022-08-02T01:19:45.391Z,4.97
2022-08-02T01:22:58.399Z,4.63
2022-08-02T01:25:28.056Z,4.57
2022-08-02T01:28:25.523Z,4.53
2022-08-02T01:30:57.573Z,4.20
2022-08-02T01:33:28.037Z,4.97
2022-08-02T01:35:58.788Z,4.47
2022-08-02T01:38:29.918Z,4.40
2022-08-02T01:41:00.538Z,4.63
2022-08-02T01:43:31.910Z,4.30
2022-08-02T01:46:01.612Z,4.33
2022-08-02T01:48:31.312Z,4.40
2022-08-02T01:51:01.093Z,4.27
2022-08-02T01:53:31.059Z,4.70
2022-08-02T01:56:01.312Z,4.30
2022-08-02T01:58:32.758Z,4.33
2022-08-02T02:01:02.182Z,4.20
2022-08-02T02:03:31.525Z,4.10
2022-08-02T02:06:03.784Z,4.77
2022-08-02T02:08:34.263Z,5.10
2022-08-02T02:12:12.390Z,5.47
2022-08-02T02:13:54.254Z,5.17
2022-08-02T02:16:23.986Z,5.20
2022-08-02T02:18:53.478Z,5.03
2022-08-02T02:21:21.990Z,5.03
2022-08-02T02:23:51.008Z,5.10
2022-08-02T02:26:29.653Z,5.13
2022-08-02T02:29:03.347Z,5.20
2022-08-02T02:31:34.584Z,5.10
2022-08-02T02:34:04.255Z,4.90
2022-08-02T02:36:34.718Z,4.90
2022-08-02T02:39:04.948Z,4.40
2022-08-02T02:41:42.123Z,4.50
2022-08-02T02:44:13.106Z,4.80
2022-08-02T02:46:42.202Z,5.10
2022-08-02T02:49:12.431Z,4.70
2022-08-02T02:51:41.895Z,5.30
2022-08-02T02:54:32.727Z,4.20
2022-08-02T02:57:00.135Z,4.40
2022-08-02T02:59:30.129Z,4.63
2022-08-02T03:01:59.193Z,4.80
2022-08-02T03:04:55.840Z,4.60
2022-08-02T03:07:17.458Z,4.90
2022-08-02T03:09:47.396Z,5.10
2022-08-02T03:12:27.139Z,4.47
2022-08-02T03:15:01.269Z,5.00
2022-08-02T03:17:38.998Z,5.10
2022-08-02T03:20:09.632Z,4.97
2022-08-02T03:22:38.229Z,5.60
2022-08-02T03:25:07.167Z,5.33
2022-08-02T03:27:35.599Z,4.93
2022-08-02T03:30:06.749Z,5.40
2022-08-02T03:32:35.422Z,5.87
2022-08-02T03:35:04.158Z,5.10
2022-08-02T03:37:34.039Z,5.00
2022-08-02T03:40:03.120Z,5.90
2022-08-02T03:42:31.781Z,5.10
2022-08-02T03:45:04.883Z,4.90
2022-08-02T03:47:38.042Z,5.43
2022-08-02T03:50:07.166Z,5.50
2022-08-02T03:52:35.820Z,5.40
2022-08-02T03:55:04.963Z,5.40
2022-08-02T03:57:33.430Z,5.63
2022-08-02T04:00:01.813Z,5.10
2022-08-02T04:02:30.237Z,4.60
2022-08-02T04:05:00.343Z,4.70
2022-08-02T04:08:02.665Z,5.50
2022-08-02T04:10:17.326Z,5.80
2022-08-02T04:12:45.878Z,5.33
2022-08-02T04:15:14.846Z,5.63
2022-08-02T04:17:45.165Z,5.60
2022-08-02T04:20:20.819Z,5.80
2022-08-02T04:22:51.199Z,6.50
2022-08-02T04:25:21.455Z,5.60
2022-08-02T04:28:16.947Z,5.83
2022-08-02T04:30:47.050Z,5.27
2022-08-02T04:33:15.575Z,5.07
2022-08-02T04:35:45.603Z,5.73
2022-08-02T04:38:15.326Z,5.47
2022-08-02T04:40:51.643Z,5.60
2022-08-02T04:43:20.097Z,5.83
2022-08-02T04:45:49.325Z,6.07
2022-08-02T04:48:17.740Z,5.63
2022-08-02T04:50:47.563Z,5.30
2022-08-02T04:53:16.310Z,5.90
2022-08-02T04:55:44.808Z,6.40
2022-08-02T04:58:38.758Z,6.50
2022-08-02T05:01:01.867Z,6.40
2022-08-02T05:03:30.538Z,6.53
2022-08-02T05:06:01.634Z,6.70
2022-08-02T05:08:30.154Z,6.67
2022-08-02T05:10:58.563Z,6.20
2022-08-02T05:13:26.982Z,6.43
2022-08-02T05:15:55.464Z,6.60
2022-08-02T05:18:23.991Z,6.07
2022-08-02T05:20:56.510Z,6.60
2022-08-02T05:23:28.128Z,6.83
2022-08-02T05:25:56.791Z,7.27
2022-08-02T05:28:25.331Z,7.10
2022-08-02T05:30:53.781Z,6.73
2022-08-02T05:33:22.350Z,7.30
2022-08-02T05:35:50.747Z,7.70
2022-08-02T05:38:19.847Z,7.17
2022-08-02T05:40:55.883Z,7.60
2022-08-02T05:43:24.461Z,7.30
2022-08-02T05:45:54.554Z,6.80
2022-08-02T05:48:27.685Z,7.10
2022-08-02T05:51:04.637Z,6.47
2022-08-02T05:53:38.227Z,6.10
2022-08-02T05:56:11.294Z,5.80
2022-08-02T05:58:44.390Z,6.20
2022-08-02T06:01:15.942Z,5.80
2022-08-02T06:03:49.989Z,6.20
2022-08-02T06:06:20.761Z,5.83
2022-08-02T06:08:50.156Z,5.80
2022-08-02T06:11:23.171Z,5.80
2022-08-02T06:13:52.311Z,5.50
2022-08-02T06:16:31.872Z,5.37
2022-08-02T06:19:01.700Z,5.37
2022-08-02T06:22:42.131Z,5.13
2022-08-02T06:24:20.538Z,5.20
2022-08-02T06:26:52.760Z,5.40
2022-08-02T06:29:23.364Z,5.23
2022-08-02T06:31:53.654Z,4.93
2022-08-02T06:34:23.118Z,4.13
2022-08-02T06:36:54.244Z,4.93
2022-08-02T06:39:28.254Z,5.20
2022-08-02T06:42:08.381Z,4.57
2022-08-02T06:44:48.695Z,5.30
2022-08-02T06:47:20.425Z,4.90
2022-08-02T06:49:51.377Z,3.92
2022-08-02T06:52:28.349Z,4.28
2022-08-02T06:54:58.412Z,3.55
2022-08-02T06:57:29.266Z,4.28
2022-08-02T07:00:02.067Z,3.78
2022-08-02T07:02:30.769Z,3.95
2022-08-02T07:04:59.218Z,4.22
2022-08-02T07:07:28.718Z,4.00
2022-08-02T07:10:00.657Z,4.13
2022-08-02T07:12:33.234Z,4.20
2022-08-02T07:15:02.412Z,3.60
2022-08-02T07:17:31.382Z,3.90
2022-08-02T07:20:00.567Z,4.10
2022-08-02T07:22:29.428Z,3.80
2022-08-02T07:24:58.918Z,3.60
2022-08-02T07:27:27.766Z,3.65
2022-08-02T07:29:57.669Z,3.63
2022-08-02T07:32:27.503Z,4.00
2022-08-02T07:34:56.427Z,3.60
2022-08-02T07:37:54.267Z,3.58
2022-08-02T07:40:20.241Z,3.63
2022-08-02T07:42:49.715Z,3.65
2022-08-02T07:45:19.615Z,3.97
2022-08-02T07:47:48.711Z,3.90
2022-08-02T07:50:17.989Z,4.13
2022-08-02T07:52:47.486Z,3.85
2022-08-02T07:55:16.425Z,3.63
2022-08-02T07:57:46.992Z,3.20
2022-08-02T08:00:17.535Z,3.95
2022-08-02T08:02:47.692Z,3.88
2022-08-02T08:05:16.569Z,3.80
2022-08-02T08:07:45.186Z,3.05
2022-08-02T08:10:13.655Z,3.53
2022-08-02T08:12:42.206Z,4.13
2022-08-02T08:15:11.083Z,3.63
2022-08-02T08:17:39.728Z,3.17
2022-08-02T08:20:13.986Z,3.00
2022-08-02T08:22:47.767Z,3.53
2022-08-02T08:25:30.381Z,3.50
2022-08-02T08:28:00.059Z,3.08
2022-08-02T08:33:10.853Z,2.85
2022-08-02T08:35:40.635Z,2.88
2022-08-02T08:38:23.031Z,2.17
2022-08-02T08:40:54.351Z,2.80
2022-08-02T08:46:05.481Z,2.92
2022-08-02T08:48:35.032Z,2.40
2022-08-02T08:54:04.510Z,2.60
2022-08-02T08:56:34.619Z,2.38
2022-08-02T08:59:03.428Z,2.95
2022-08-02T09:01:49.585Z,2.50
2022-08-02T09:04:19.300Z,3.10
2022-08-02T09:06:47.731Z,2.85
2022-08-02T09:09:17.503Z,3.35
2022-08-02T09:11:46.110Z,3.40
2022-08-02T09:14:27.242Z,3.25
2022-08-02T09:16:55.639Z,3.03
2022-08-02T09:19:25.039Z,3.53
2022-08-02T09:21:54.115Z,3.60
2022-08-02T09:24:24.952Z,3.17
2022-08-02T09:26:53.791Z,2.90
2022-08-02T09:29:24.255Z,3.08
2022-08-02T09:34:48.657Z,2.90
2022-08-02T09:37:24.374Z,2.80
2022-08-02T09:39:59.742Z,2.67
2022-08-02T09:42:30.079Z,2.40
2022-08-02T09:45:00.209Z,2.45
2022-08-02T09:47:31.104Z,2.50
2022-08-02T09:50:00.278Z,2.72
2022-08-02T09:52:36.826Z,2.70
2022-08-02T09:55:08.208Z,2.13
2022-08-02T09:57:38.631Z,2.03
2022-08-02T10:00:16.197Z,2.08
2022-08-02T10:03:03.734Z,2.10
2022-08-02T10:05:37.278Z,2.20
2022-08-02T10:11:02.003Z,2.40
2022-08-02T10:13:31.318Z,2.13
2022-08-02T10:15:59.941Z,2.33
2022-08-02T10:18:38.855Z,2.42
2022-08-02T10:21:10.302Z,2.15
2022-08-02T10:23:42.269Z,2.50
2022-08-02T10:26:14.950Z,2.40
2022-08-02T10:28:44.490Z,2.72
2022-08-02T10:31:16.373Z,2.38
2022-08-02T10:33:50.079Z,2.28
2022-08-02T10:36:20.412Z,2.25
2022-08-02T10:38:49.982Z,2.15
2022-08-02T10:41:39.321Z,2.00
2022-08-02T10:44:24.441Z,1.90
2022-08-02T10:46:54.058Z,1.85
2022-08-02T10:49:40.231Z,1.70
2022-08-02T10:52:09.841Z,1.70
2022-08-02T10:54:39.707Z,1.63
2022-08-02T10:57:19.024Z,1.50
2022-08-02T10:59:49.374Z,1.60
2022-08-02T11:02:46.772Z,1.90
2022-08-02T11:05:16.744Z,1.50
2022-08-02T11:07:47.869Z,1.65
2022-08-02T11:10:33.108Z,1.75
2022-08-02T11:13:04.332Z,1.83
2022-08-02T11:15:49.367Z,1.70
2022-08-02T11:18:18.771Z,1.95
2022-08-02T11:23:44.170Z,1.90
2022-08-02T11:29:25.511Z,2.28
2022-08-02T11:32:08.854Z,2.30
2022-08-02T11:40:40.898Z,2.10
2022-08-02T11:43:17.909Z,2.08
2022-08-02T11:48:32.778Z,2.28
2022-08-02T11:51:06.747Z,2.40
2022-08-02T11:53:36.955Z,2.05
2022-08-02T11:56:06.090Z,2.17
2022-08-02T11:58:34.738Z,2.42
2022-08-02T12:01:03.714Z,2.20
2022-08-02T12:03:37.270Z,2.72
2022-08-02T12:06:16.425Z,2.70
2022-08-02T12:08:52.004Z,2.15
2022-08-02T12:14:06.786Z,2.60
2022-08-02T12:16:54.694Z,2.50
2022-08-02T12:19:26.531Z,2.30
2022-08-02T12:22:10.045Z,2.75
2022-08-02T12:24:41.216Z,2.40
2022-08-02T12:27:10.045Z,2.60
2022-08-02T12:29:58.376Z,2.60
2022-08-02T12:32:28.435Z,2.20
2022-08-02T12:35:04.221Z,2.53
2022-08-02T12:37:32.648Z,2.35
2022-08-02T12:40:24.187Z,2.60
2022-08-02T12:42:54.975Z,2.55
2022-08-02T12:45:23.590Z,2.00
2022-08-02T12:47:59.560Z,2.13
2022-08-02T12:50:29.496Z,2.45
2022-08-02T12:53:08.481Z,2.50
2022-08-02T12:56:00.885Z,2.20
2022-08-02T12:58:30.141Z,2.67
2022-08-02T13:00:59.953Z,2.30
2022-08-02T13:04:07.409Z,2.60
2022-08-02T13:06:42.929Z,2.28
2022-08-02T13:09:17.098Z,1.90
2022-08-02T13:11:47.463Z,2.22
2022-08-02T13:14:16.311Z,1.90
2022-08-02T13:16:45.550Z,1.98
2022-08-02T13:19:15.496Z,1.83
2022-08-02T13:22:01.446Z,2.00
2022-08-02T13:24:37.838Z,1.92
2022-08-02T13:30:06.459Z,2.10
2022-08-02T13:32:35.722Z,2.00
2022-08-02T13:35:05.046Z,1.90
2022-08-02T13:37:38.748Z,1.80
2022-08-02T13:40:21.834Z,2.00
2022-08-02T13:42:52.429Z,1.85
2022-08-02T13:45:21.382Z,2.00
2022-08-02T13:48:04.001Z,1.95
2022-08-02T13:50:34.764Z,1.58
2022-08-02T13:53:03.249Z,1.98
2022-08-02T13:55:31.751Z,1.88
2022-08-02T13:58:15.622Z,1.70
2022-08-02T14:00:44.212Z,2.45
2022-08-02T14:03:13.563Z,1.90
2022-08-02T14:05:48.294Z,1.90
2022-08-02T14:08:18.211Z,2.20
2022-08-02T14:11:01.996Z,1.65
2022-08-02T14:13:32.248Z,2.10
2022-08-02T14:16:05.195Z,2.30
2022-08-02T14:18:37.218Z,1.90
2022-08-02T14:21:05.815Z,1.73
2022-08-02T14:23:50.926Z,2.00
2022-08-02T14:26:27.187Z,2.42
2022-08-02T14:28:57.844Z,2.03
2022-08-02T14:31:30.315Z,1.90
2022-08-02T14:33:59.030Z,2.10
2022-08-02T14:36:28.109Z,2.17
2022-08-02T14:38:56.860Z,2.22
2022-08-02T14:41:25.406Z,2.20
2022-08-02T14:44:06.217Z,2.42
2022-08-02T14:46:37.330Z,2.53
2022-08-02T14:49:07.836Z,2.20
2022-08-02T14:51:36.991Z,2.47
2022-08-02T14:54:05.916Z,2.53
2022-08-02T14:56:37.031Z,2.40
2022-08-02T14:59:06.090Z,2.45
2022-08-02T15:01:36.480Z,2.10
2022-08-02T15:04:05.173Z,2.42
2022-08-02T15:06:33.927Z,2.30
2022-08-02T15:09:02.367Z,2.20
2022-08-02T15:11:30.784Z,2.40
2022-08-02T15:14:30.885Z,2.17
2022-08-02T15:17:00.639Z,2.40
2022-08-02T15:20:00.079Z,2.35
2022-08-02T15:22:31.042Z,2.33
2022-08-02T15:25:00.643Z,2.50
2022-08-02T15:27:29.008Z,2.42
2022-08-02T15:30:00.517Z,2.30
2022-08-02T15:32:30.719Z,2.45
2022-08-02T15:34:59.141Z,2.10
2022-08-02T15:37:31.144Z,1.90
2022-08-02T15:39:59.902Z,2.08
2022-08-02T15:42:30.519Z,2.10
2022-08-02T15:44:59.755Z,2.20
2022-08-02T15:47:28.461Z,1.90
2022-08-02T15:49:58.781Z,1.95
2022-08-02T15:52:28.645Z,1.95
2022-08-02T15:55:06.779Z,2.00
2022-08-02T15:57:36.388Z,2.25
2022-08-02T16:00:05.496Z,1.98
2022-08-02T16:02:33.939Z,2.17
2022-08-02T16:05:03.797Z,1.90
2022-08-02T16:07:43.456Z,2.00
2022-08-02T16:10:12.504Z,1.90
2022-08-02T16:12:40.894Z,2.15
2022-08-02T16:15:09.884Z,1.98
2022-08-02T16:17:53.573Z,2.22
2022-08-02T16:20:24.679Z,2.30
2022-08-02T16:22:53.094Z,2.00
2022-08-02T16:25:23.035Z,2.22
2022-08-02T16:28:06.438Z,2.30
2022-08-02T16:30:38.124Z,2.40
2022-08-02T16:33:20.490Z,2.47
2022-08-02T16:35:50.330Z,2.45
2022-08-02T16:38:18.713Z,2.30
2022-08-02T16:40:47.178Z,2.20
2022-08-02T16:43:15.552Z,2.20
2022-08-02T16:45:45.161Z,2.70
2022-08-02T16:48:13.855Z,2.50
2022-08-02T16:50:46.618Z,2.60
2022-08-02T16:56:05.845Z,2.67
2022-08-02T16:58:34.287Z,2.60
2022-08-02T17:01:03.513Z,2.50
2022-08-02T17:03:56.579Z,2.88
2022-08-02T17:06:20.371Z,2.70
2022-08-02T17:08:56.991Z,2.85
2022-08-02T17:11:25.722Z,3.00
2022-08-02T17:13:54.430Z,2.95
2022-08-02T17:16:26.044Z,2.92
2022-08-02T17:18:57.621Z,2.85
2022-08-02T17:21:26.074Z,2.65
2022-08-02T17:24:07.515Z,2.80
2022-08-02T17:26:37.997Z,3.05
2022-08-02T17:29:14.201Z,2.92
2022-08-02T17:32:05.152Z,2.80
2022-08-02T17:34:34.896Z,3.00
2022-08-02T17:37:05.553Z,2.90
2022-08-02T17:39:44.157Z,2.80
2022-08-02T17:42:20.459Z,2.80
2022-08-02T17:44:52.580Z,2.90
2022-08-02T17:47:21.640Z,3.15
2022-08-02T17:49:52.668Z,2.70
2022-08-02T17:52:52.130Z,2.80
2022-08-02T17:55:14.856Z,2.90
2022-08-02T17:57:57.464Z,2.90
2022-08-02T18:00:46.587Z,2.90
2022-08-02T18:03:17.584Z,2.90
2022-08-02T18:05:55.362Z,2.65
2022-08-02T18:08:24.382Z,2.90
2022-08-02T18:10:55.882Z,2.70
2022-08-02T18:13:32.720Z,2.83
2022-08-02T18:16:01.968Z,2.55
2022-08-02T18:18:30.970Z,3.05
2022-08-02T18:21:16.045Z,2.42
2022-08-02T18:23:58.223Z,2.50
2022-08-02T18:26:29.539Z,2.50
2022-08-02T18:29:08.808Z,2.72
2022-08-02T18:31:39.476Z,2.90
2022-08-02T18:34:09.291Z,2.58
2022-08-02T18:36:47.033Z,2.58
2022-08-02T18:39:51.284Z,2.80
2022-08-02T18:42:54.114Z,3.13
2022-08-02T18:46:05.441Z,2.58
2022-08-02T18:48:30.154Z,2.95
2022-08-02T18:50:58.811Z,3.03
2022-08-02T18:53:41.430Z,2.90
2022-08-02T18:56:20.339Z,2.53
2022-08-02T18:58:55.934Z,2.55
2022-08-02T19:01:31.799Z,2.88
2022-08-02T19:04:02.004Z,3.08
2022-08-02T19:06:31.036Z,3.10
2022-08-02T19:09:11.435Z,2.85
2022-08-02T19:12:03.850Z,3.25
2022-08-02T19:14:35.359Z,3.03
2022-08-02T19:17:53.959Z,3.03
2022-08-02T19:19:52.175Z,3.10
2022-08-02T19:22:23.692Z,3.05
2022-08-02T19:25:00.016Z,3.10
2022-08-02T19:27:32.787Z,3.53
2022-08-02T19:30:03.178Z,3.20
2022-08-02T19:32:40.742Z,3.30
2022-08-02T19:35:30.713Z,3.22
2022-08-02T19:38:08.876Z,3.20
2022-08-02T19:40:38.959Z,3.30
2022-08-02T19:44:21.114Z,3.15
2022-08-02T19:45:59.531Z,3.38
2022-08-02T19:48:29.028Z,3.20
2022-08-02T19:51:01.460Z,3.22
2022-08-02T19:53:48.795Z,3.08
2022-08-02T19:56:25.660Z,3.50
2022-08-02T19:58:55.209Z,3.25
2022-08-02T20:01:38.311Z,3.70
2022-08-02T20:04:12.907Z,3.60
2022-08-02T20:06:45.520Z,3.80
2022-08-02T20:09:16.608Z,3.55
2022-08-02T20:11:45.584Z,3.63
2022-08-02T20:14:14.197Z,3.30
2022-08-02T20:16:44.073Z,3.40
2022-08-02T20:19:14.516Z,3.67
2022-08-02T20:21:51.452Z,3.63
2022-08-02T20:24:26.518Z,3.80
2022-08-02T20:26:55.338Z,3.80
2022-08-02T20:29:43.316Z,3.70
2022-08-02T20:32:22.651Z,3.45
2022-08-02T20:34:52.783Z,3.63
2022-08-02T20:37:59.722Z,3.88
2022-08-02T20:40:16.576Z,3.60
2022-08-02T20:42:48.013Z,4.00
2022-08-02T20:45:16.851Z,3.65
2022-08-02T20:47:52.479Z,3.45
2022-08-02T20:50:39.101Z,4.13
2022-08-02T20:53:08.291Z,3.65
2022-08-02T20:55:53.190Z,4.03
2022-08-02T20:58:26.861Z,3.58
2022-08-02T21:00:59.398Z,3.80
2022-08-02T21:03:38.833Z,4.00
2022-08-02T21:06:08.879Z,4.20
2022-08-02T21:08:38.389Z,4.10
2022-08-02T21:11:09.526Z,4.28
2022-08-02T21:13:46.708Z,4.00
2022-08-02T21:16:29.695Z,4.63
2022-08-02T21:19:00.552Z,4.10
2022-08-02T21:21:29.718Z,4.30
2022-08-02T21:23:59.208Z,4.18
2022-08-02T21:26:31.069Z,4.40
2022-08-02T21:29:03.217Z,4.75
2022-08-02T21:31:35.696Z,4.50
2022-08-02T21:36:55.158Z,4.50
2022-08-02T21:39:23.631Z,4.55
2022-08-02T21:41:52.386Z,5.10
2022-08-02T21:44:22.177Z,5.28
2022-08-02T21:46:52.949Z,5.43
2022-08-02T21:49:27.195Z,5.47
2022-08-02T21:52:10.080Z,4.82
2022-08-02T21:54:39.797Z,5.00
2022-08-02T21:57:11.226Z,4.97
2022-08-02T21:59:45.430Z,5.15
2022-08-02T22:02:14.500Z,5.10
2022-08-02T22:04:47.587Z,5.30
2022-08-02T22:07:17.082Z,5.70
2022-08-02T22:09:46.058Z,5.50
2022-08-02T22:12:17.570Z,5.43
2022-08-02T22:14:49.471Z,5.40
2022-08-02T22:17:51.234Z,5.70
2022-08-02T22:20:15.562Z,5.88
2022-08-02T22:22:50.393Z,5.90
2022-08-02T22:25:27.049Z,5.97
2022-08-02T22:28:38.160Z,6.20
2022-08-02T22:30:54.203Z,6.22
2022-08-02T22:33:42.127Z,5.82
2022-08-02T22:36:16.700Z,6.60
2022-08-02T22:38:45.255Z,6.53
2022-08-02T22:41:13.809Z,6.13
2022-08-02T22:43:42.389Z,6.13
2022-08-02T22:46:15.577Z,6.13
2022-08-02T22:51:35.182Z,6.70
2022-08-02T22:54:05.227Z,7.28
2022-08-02T22:56:44.597Z,7.20
2022-08-02T22:58:49.595Z,2.53
2022-08-02T22:59:03.016Z,4.97
2022-08-02T23:01:44.366Z,6.85
2022-08-02T23:04:13.139Z,6.95
2022-08-02T23:06:42.915Z,6.80
2022-08-02T23:09:11.464Z,6.47
2022-08-02T23:11:39.829Z,6.50
2022-08-02T23:14:08.389Z,6.65
2022-08-02T23:16:54.548Z,6.97
2022-08-02T23:19:40.444Z,6.97
2022-08-02T23:22:10.656Z,7.30
2022-08-02T23:24:39.228Z,6.97
2022-08-02T23:27:08.034Z,7.28
2022-08-02T23:29:36.958Z,7.10
2022-08-02T23:32:05.683Z,6.78
2022-08-02T23:34:36.090Z,6.75
2022-08-02T23:37:04.666Z,6.90
2022-08-02T23:39:34.714Z,6.80
2022-08-02T23:42:03.509Z,6.93
2022-08-02T23:44:31.893Z,7.13
2022-08-02T23:47:00.508Z,6.63
2022-08-02T23:49:29.374Z,6.65
2022-08-02T23:52:01.459Z,6.68
2022-08-02T23:54:30.120Z,6.97
2022-08-02T23:56:59.886Z,7.05
2022-08-02T23:59:48.291Z,6.82
